sensor_id;sensor_type;location;lat;lon;timestamp;pressure;altitude;pressure_sealevel;temperature;humidity
16122;BME280;8165;52.730;10.720;2024-02-15T10:50:18;100736.13;;;15.43;100.00
16122;BME280;8165;52.730;10.720;2024-02-15T10:52:48;100733.94;;;15.16;100.00
16122;BME280;8165;52.730;10.720;2024-02-15T10:55:15;100737.91;;;15.28;100.00
16122;BME280;8165;52.730;10.720;2024-02-15T10:57:46;100726.09;;;15.54;100.00
16122;BME280;8165;52.730;10.720;2024-02-15T11:00:11;100635.41;;;14.85;100.00
16122;BME280;8165;52.730;10.720;2024-02-15T11:02:42;100729.88;;;15.39;100.00
16122;BME280;8165;52.730;10.720;2024-02-15T11:05:09;100719.97;;;15.38;100.00
16122;BME280;8165;52.730;10.720;2024-02-15T11:07:32;100714.13;;;15.45;100.00
16122;BME280;8165;52.730;10.720;2024-02-15T11:09:55;100719.03;;;15.81;100.00
16122;BME280;8165;52.730;10.720;2024-02-15T11:12:20;100718.03;;;15.57;100.00
16122;BME280;8165;52.730;10.720;2024-02-15T11:14:45;100718.88;;;15.75;100.00
16122;BME280;8165;52.730;10.720;2024-02-15T11:17:07;100722.38;;;15.27;100.00
16122;BME280;8165;52.730;10.720;2024-02-15T11:21:59;100716.75;;;15.48;100.00
16122;BME280;8165;52.730;10.720;2024-02-15T11:24:29;100703.34;;;15.43;100.00
16122;BME280;8165;52.730;10.720;2024-02-15T11:26:58;100711.53;;;15.60;100.00
16122;BME280;8165;52.730;10.720;2024-02-15T11:29:58;100707.53;;;15.70;100.00
16122;BME280;8165;52.730;10.720;2024-02-15T11:32:44;100699.47;;;15.81;100.00
16122;BME280;8165;52.730;10.720;2024-02-15T11:35:16;100696.91;;;15.55;100.00
16122;BME280;8165;52.730;10.720;2024-02-15T11:40:11;100695.38;;;15.64;100.00
16122;BME280;8165;52.730;10.720;2024-02-15T11:42:35;100697.00;;;15.43;100.00
16122;BME280;8165;52.730;10.720;2024-02-15T11:45:03;100689.84;;;15.73;100.00
16122;BME280;8165;52.730;10.720;2024-02-15T11:47:32;100695.72;;;15.75;100.00
16122;BME280;8165;52.730;10.720;2024-02-15T11:49:54;100697.94;;;15.80;100.00
16122;BME280;8165;52.730;10.720;2024-02-15T11:52:16;100701.63;;;15.68;100.00
16122;BME280;8165;52.730;10.720;2024-02-15T11:54:39;100692.28;;;15.71;100.00
16122;BME280;8165;52.730;10.720;2024-02-15T11:57:01;100695.03;;;15.52;100.00
16122;BME280;8165;52.730;10.720;2024-02-15T11:59:42;100691.09;;;15.10;100.00
16122;BME280;8165;52.730;10.720;2024-02-15T12:02:26;100684.78;;;15.59;100.00
16122;BME280;8165;52.730;10.720;2024-02-15T12:05:06;100688.75;;;15.39;100.00
16122;BME280;8165;52.730;10.720;2024-02-15T12:07:55;100689.34;;;15.34;100.00
16122;BME280;8165;52.730;10.720;2024-02-15T12:10:36;100676.38;;;15.19;100.00
16122;BME280;8165;52.730;10.720;2024-02-15T12:13:19;100680.38;;;15.39;100.00
16122;BME280;8165;52.730;10.720;2024-02-15T12:16:00;100670.97;;;15.24;100.00
16122;BME280;8165;52.730;10.720;2024-02-15T12:18:43;100677.88;;;15.41;100.00
16122;BME280;8165;52.730;10.720;2024-02-15T12:21:07;100668.06;;;15.28;100.00
16122;BME280;8165;52.730;10.720;2024-02-15T12:23:32;100670.00;;;15.18;100.00
16122;BME280;8165;52.730;10.720;2024-02-15T12:25:55;100659.41;;;15.04;100.00
16122;BME280;8165;52.730;10.720;2024-02-15T12:28:17;100658.00;;;15.39;100.00
16122;BME280;8165;52.730;10.720;2024-02-15T12:30:40;100655.09;;;15.12;100.00
16122;BME280;8165;52.730;10.720;2024-02-15T12:33:12;100656.41;;;14.99;100.00
16122;BME280;8165;52.730;10.720;2024-02-15T12:35:35;100647.81;;;15.15;100.00
16122;BME280;8165;52.730;10.720;2024-02-15T12:40:32;100649.09;;;15.23;100.00
16122;BME280;8165;52.730;10.720;2024-02-15T12:42:54;100654.91;;;15.37;100.00
16122;BME280;8165;52.730;10.720;2024-02-15T12:45:20;100654.69;;;15.23;100.00
16122;BME280;8165;52.730;10.720;2024-02-15T12:47:43;100602.41;;;14.93;100.00
16122;BME280;8165;52.730;10.720;2024-02-15T12:50:13;100639.00;;;15.65;100.00
16122;BME280;8165;52.730;10.720;2024-02-15T12:52:37;100626.53;;;15.08;100.00
16122;BME280;8165;52.730;10.720;2024-02-15T12:55:15;100630.91;;;15.18;100.00
16122;BME280;8165;52.730;10.720;2024-02-15T12:57:39;100628.00;;;15.31;100.00
16122;BME280;8165;52.730;10.720;2024-02-15T13:00:10;100637.81;;;14.74;100.00
16122;BME280;8165;52.730;10.720;2024-02-15T13:02:34;100634.94;;;15.17;100.00
16122;BME280;8165;52.730;10.720;2024-02-15T13:04:59;100630.63;;;14.85;100.00
16122;BME280;8165;52.730;10.720;2024-02-15T13:07:21;100625.13;;;14.73;100.00
16122;BME280;8165;52.730;10.720;2024-02-15T13:09:43;100632.94;;;14.87;100.00
16122;BME280;8165;52.730;10.720;2024-02-15T13:12:05;100627.19;;;15.21;100.00
16122;BME280;8165;52.730;10.720;2024-02-15T13:14:27;100618.75;;;15.03;100.00
16122;BME280;8165;52.730;10.720;2024-02-15T13:16:51;100620.69;;;14.93;100.00
16122;BME280;8165;52.730;10.720;2024-02-15T13:19:13;100616.00;;;15.12;100.00
16122;BME280;8165;52.730;10.720;2024-02-15T13:21:35;100616.56;;;14.98;100.00
16122;BME280;8165;52.730;10.720;2024-02-15T13:23:56;100613.59;;;14.93;100.00
16122;BME280;8165;52.730;10.720;2024-02-15T13:26:18;100613.81;;;15.16;100.00
16122;BME280;8165;52.730;10.720;2024-02-15T13:28:41;100613.78;;;14.98;100.00
16122;BME280;8165;52.730;10.720;2024-02-15T13:31:06;100612.44;;;14.81;100.00
16122;BME280;8165;52.730;10.720;2024-02-15T13:33:28;100615.38;;;15.17;100.00
16122;BME280;8165;52.730;10.720;2024-02-15T13:35:53;100609.19;;;15.13;100.00
16122;BME280;8165;52.730;10.720;2024-02-15T13:38:15;100605.63;;;14.91;100.00
16122;BME280;8165;52.730;10.720;2024-02-15T13:40:46;100593.38;;;15.28;100.00
16122;BME280;8165;52.730;10.720;2024-02-15T13:43:11;100594.63;;;15.27;100.00
16122;BME280;8165;52.730;10.720;2024-02-15T13:45:43;100604.22;;;15.17;100.00
16122;BME280;8165;52.730;10.720;2024-02-15T13:48:07;100598.63;;;15.17;100.00
16122;BME280;8165;52.730;10.720;2024-02-15T13:50:30;100607.50;;;14.85;100.00
16122;BME280;8165;52.730;10.720;2024-02-15T13:52:52;100602.81;;;15.22;100.00
16122;BME280;8165;52.730;10.720;2024-02-15T13:55:18;100606.31;;;15.04;100.00
16122;BME280;8165;52.730;10.720;2024-02-15T13:57:41;100599.28;;;15.30;100.00
16122;BME280;8165;52.730;10.720;2024-02-15T14:00:04;100594.25;;;15.16;100.00
16122;BME280;8165;52.730;10.720;2024-02-15T14:02:32;100593.66;;;14.81;100.00
16122;BME280;8165;52.730;10.720;2024-02-15T14:04:54;100591.19;;;15.23;100.00
16122;BME280;8165;52.730;10.720;2024-02-15T14:07:18;100595.22;;;15.22;100.00
16122;BME280;8165;52.730;10.720;2024-02-15T14:09:41;100592.44;;;15.22;100.00
16122;BME280;8165;52.730;10.720;2024-02-15T14:12:03;100593.94;;;15.14;100.00
16122;BME280;8165;52.730;10.720;2024-02-15T14:14:27;100594.94;;;15.29;100.00
16122;BME280;8165;52.730;10.720;2024-02-15T14:16:49;100598.66;;;14.86;100.00
16122;BME280;8165;52.730;10.720;2024-02-15T14:19:11;100597.56;;;15.24;100.00
16122;BME280;8165;52.730;10.720;2024-02-15T14:21:34;100596.03;;;14.92;100.00
16122;BME280;8165;52.730;10.720;2024-02-15T14:24:00;100595.13;;;14.95;100.00
16122;BME280;8165;52.730;10.720;2024-02-15T14:26:22;100598.41;;;14.72;100.00
16122;BME280;8165;52.730;10.720;2024-02-15T14:28:48;100595.38;;;15.19;100.00
16122;BME280;8165;52.730;10.720;2024-02-15T14:31:11;100597.38;;;14.78;100.00
16122;BME280;8165;52.730;10.720;2024-02-15T14:33:51;100596.66;;;14.96;100.00
16122;BME280;8165;52.730;10.720;2024-02-15T14:36:13;100596.03;;;14.92;100.00
16122;BME280;8165;52.730;10.720;2024-02-15T14:38:36;100601.00;;;14.88;100.00
16122;BME280;8165;52.730;10.720;2024-02-15T14:40:58;100598.00;;;15.13;100.00
16122;BME280;8165;52.730;10.720;2024-02-15T14:43:23;100589.28;;;15.11;100.00
16122;BME280;8165;52.730;10.720;2024-02-15T14:45:47;100599.56;;;15.23;100.00
16122;BME280;8165;52.730;10.720;2024-02-15T14:48:10;100600.78;;;15.13;100.00
16122;BME280;8165;52.730;10.720;2024-02-15T14:50:32;100603.53;;;15.04;100.00
16122;BME280;8165;52.730;10.720;2024-02-15T14:52:54;100601.25;;;15.12;100.00
16122;BME280;8165;52.730;10.720;2024-02-15T14:55:17;100590.25;;;15.17;100.00
16122;BME280;8165;52.730;10.720;2024-02-15T14:57:41;100599.63;;;15.41;100.00
16122;BME280;8165;52.730;10.720;2024-02-15T15:00:05;100597.38;;;15.18;100.00
16122;BME280;8165;52.730;10.720;2024-02-15T15:02:32;100541.09;;;14.89;100.00
16122;BME280;8165;52.730;10.720;2024-02-15T15:04:54;100601.84;;;15.07;100.00
16122;BME280;8165;52.730;10.720;2024-02-15T15:07:39;100589.78;;;15.19;100.00
16122;BME280;8165;52.730;10.720;2024-02-15T15:10:19;100593.94;;;15.14;100.00
16122;BME280;8165;52.730;10.720;2024-02-15T15:13:00;100601.72;;;15.10;100.00
16122;BME280;8165;52.730;10.720;2024-02-15T15:15:22;100589.25;;;15.02;100.00
16122;BME280;8165;52.730;10.720;2024-02-15T15:17:45;100592.06;;;15.11;100.00
16122;BME280;8165;52.730;10.720;2024-02-15T15:20:08;100598.34;;;15.33;100.00
16122;BME280;8165;52.730;10.720;2024-02-15T15:22:30;100591.72;;;15.40;100.00
16122;BME280;8165;52.730;10.720;2024-02-15T15:24:52;100589.16;;;15.24;100.00
16122;BME280;8165;52.730;10.720;2024-02-15T15:27:14;100589.16;;;15.24;100.00
16122;BME280;8165;52.730;10.720;2024-02-15T15:29:36;100590.31;;;15.35;100.00
16122;BME280;8165;52.730;10.720;2024-02-15T15:31:58;100589.63;;;15.22;100.00
16122;BME280;8165;52.730;10.720;2024-02-15T15:34:20;100589.63;;;15.13;100.00
16122;BME280;8165;52.730;10.720;2024-02-15T15:36:42;100589.63;;;15.22;100.00
16122;BME280;8165;52.730;10.720;2024-02-15T15:39:04;100592.22;;;15.08;100.00
16122;BME280;8165;52.730;10.720;2024-02-15T15:41:30;100598.22;;;15.37;100.00
16122;BME280;8165;52.730;10.720;2024-02-15T15:43:52;100592.53;;;15.01;100.00
16122;BME280;8165;52.730;10.720;2024-02-15T15:46:14;100592.38;;;15.04;100.00
16122;BME280;8165;52.730;10.720;2024-02-15T15:48:37;100590.56;;;15.28;100.00
16122;BME280;8165;52.730;10.720;2024-02-15T15:51:01;100591.53;;;15.25;100.00
16122;BME280;8165;52.730;10.720;2024-02-15T15:53:27;100593.75;;;15.00;100.00
16122;BME280;8165;52.730;10.720;2024-02-15T15:55:49;100600.22;;;15.27;100.00
16122;BME280;8165;52.730;10.720;2024-02-15T15:58:11;100585.84;;;14.98;100.00
16122;BME280;8165;52.730;10.720;2024-02-15T16:00:33;100594.44;;;15.13;100.00
16122;BME280;8165;52.730;10.720;2024-02-15T16:03:00;100577.38;;;15.20;100.00
16122;BME280;8165;52.730;10.720;2024-02-15T16:05:23;100575.38;;;15.29;100.00
16122;BME280;8165;52.730;10.720;2024-02-15T16:07:45;100586.88;;;15.31;100.00
16122;BME280;8165;52.730;10.720;2024-02-15T16:10:08;100582.84;;;15.41;100.00
16122;BME280;8165;52.730;10.720;2024-02-15T16:12:42;100589.88;;;15.46;100.00
16122;BME280;8165;52.730;10.720;2024-02-15T16:15:08;100577.66;;;15.62;100.00
16122;BME280;8165;52.730;10.720;2024-02-15T16:17:34;100589.47;;;15.75;100.00
16122;BME280;8165;52.730;10.720;2024-02-15T16:19:57;100583.84;;;15.47;100.00
16122;BME280;8165;52.730;10.720;2024-02-15T16:22:19;100582.75;;;15.54;100.00
16122;BME280;8165;52.730;10.720;2024-02-15T16:24:43;100582.47;;;15.70;100.00
16122;BME280;8165;52.730;10.720;2024-02-15T16:27:05;100568.22;;;15.28;100.00
16122;BME280;8165;52.730;10.720;2024-02-15T16:29:27;100570.75;;;15.44;100.00
16122;BME280;8165;52.730;10.720;2024-02-15T16:31:49;100567.31;;;15.31;100.00
16122;BME280;8165;52.730;10.720;2024-02-15T16:34:11;100577.16;;;15.45;100.00
16122;BME280;8165;52.730;10.720;2024-02-15T16:36:33;100572.97;;;15.49;100.00
16122;BME280;8165;52.730;10.720;2024-02-15T16:38:55;100568.81;;;15.14;100.00
16122;BME280;8165;52.730;10.720;2024-02-15T16:41:18;100567.91;;;15.26;100.00
16122;BME280;8165;52.730;10.720;2024-02-15T16:43:41;100563.72;;;15.22;100.00
16122;BME280;8165;52.730;10.720;2024-02-15T16:46:03;100573.91;;;15.07;100.00
16122;BME280;8165;52.730;10.720;2024-02-15T16:48:25;100554.59;;;15.30;100.00
16122;BME280;8165;52.730;10.720;2024-02-15T16:50:47;100559.66;;;15.14;100.00
16122;BME280;8165;52.730;10.720;2024-02-15T16:53:09;100565.63;;;14.94;100.00
16122;BME280;8165;52.730;10.720;2024-02-15T16:55:31;100572.09;;;14.82;100.00
16122;BME280;8165;52.730;10.720;2024-02-15T16:57:54;100561.63;;;15.04;100.00
16122;BME280;8165;52.730;10.720;2024-02-15T17:00:22;100565.00;;;14.90;100.00
16122;BME280;8165;52.730;10.720;2024-02-15T17:02:44;100558.44;;;14.75;100.00
16122;BME280;8165;52.730;10.720;2024-02-15T17:05:06;100560.66;;;14.89;100.00
16122;BME280;8165;52.730;10.720;2024-02-15T17:07:29;100557.22;;;14.85;100.00
16122;BME280;8165;52.730;10.720;2024-02-15T17:09:52;100567.78;;;14.81;100.00
16122;BME280;8165;52.730;10.720;2024-02-15T17:12:17;100565.91;;;14.87;100.00
16122;BME280;8165;52.730;10.720;2024-02-15T17:14:39;100566.50;;;15.13;100.00
16122;BME280;8165;52.730;10.720;2024-02-15T17:17:03;100564.72;;;14.97;100.00
16122;BME280;8165;52.730;10.720;2024-02-15T17:19:27;100567.53;;;15.06;100.00
16122;BME280;8165;52.730;10.720;2024-02-15T17:21:49;100563.84;;;15.18;100.00
16122;BME280;8165;52.730;10.720;2024-02-15T17:24:11;100570.69;;;15.26;100.00
16122;BME280;8165;52.730;10.720;2024-02-15T17:26:33;100581.47;;;14.97;100.00
16122;BME280;8165;52.730;10.720;2024-02-15T17:28:55;100580.25;;;14.98;100.00
16122;BME280;8165;52.730;10.720;2024-02-15T17:31:20;100583.09;;;15.16;100.00
16122;BME280;8165;52.730;10.720;2024-02-15T17:33:42;100576.34;;;15.35;100.00
16122;BME280;8165;52.730;10.720;2024-02-15T17:36:06;100574.88;;;15.13;100.00
16122;BME280;8165;52.730;10.720;2024-02-15T17:38:29;100575.50;;;15.17;100.00
16122;BME280;8165;52.730;10.720;2024-02-15T17:40:50;100577.16;;;15.05;100.00
16122;BME280;8165;52.730;10.720;2024-02-15T17:43:13;100580.91;;;15.11;100.00
16122;BME280;8165;52.730;10.720;2024-02-15T17:45:35;100575.97;;;15.15;100.00
16122;BME280;8165;52.730;10.720;2024-02-15T17:47:57;100581.50;;;15.06;100.00
16122;BME280;8165;52.730;10.720;2024-02-15T17:50:19;100574.00;;;14.94;100.00
16122;BME280;8165;52.730;10.720;2024-02-15T17:52:44;100573.00;;;15.10;100.00
16122;BME280;8165;52.730;10.720;2024-02-15T17:55:07;100574.41;;;15.14;100.00
16122;BME280;8165;52.730;10.720;2024-02-15T17:57:31;100579.97;;;15.14;100.00
16122;BME280;8165;52.730;10.720;2024-02-15T17:59:54;100579.97;;;15.14;100.00
16122;BME280;8165;52.730;10.720;2024-02-15T18:02:16;100579.97;;;15.14;100.00
16122;BME280;8165;52.730;10.720;2024-02-15T18:04:38;100580.66;;;15.27;100.00
16122;BME280;8165;52.730;10.720;2024-02-15T18:07:00;100575.31;;;15.60;100.00
16122;BME280;8165;52.730;10.720;2024-02-15T18:09:22;100568.69;;;15.27;100.00
16122;BME280;8165;52.730;10.720;2024-02-15T18:11:44;100576.94;;;15.30;100.00
16122;BME280;8165;52.730;10.720;2024-02-15T18:14:06;100565.66;;;15.52;100.00
16122;BME280;8165;52.730;10.720;2024-02-15T18:16:28;100574.47;;;15.41;100.00
16122;BME280;8165;52.730;10.720;2024-02-15T18:18:51;100572.38;;;15.15;100.00
16122;BME280;8165;52.730;10.720;2024-02-15T18:21:14;100566.91;;;15.51;100.00
16122;BME280;8165;52.730;10.720;2024-02-15T18:23:36;100571.09;;;15.46;100.00
16122;BME280;8165;52.730;10.720;2024-02-15T18:26:01;100571.28;;;15.70;100.00
16122;BME280;8165;52.730;10.720;2024-02-15T18:28:25;100570.69;;;15.75;100.00
16122;BME280;8165;52.730;10.720;2024-02-15T18:30:49;100567.06;;;15.57;100.00
16122;BME280;8165;52.730;10.720;2024-02-15T18:33:12;100559.91;;;15.55;100.00
16122;BME280;8165;52.730;10.720;2024-02-15T18:35:37;100556.22;;;15.68;100.00
16122;BME280;8165;52.730;10.720;2024-02-15T18:38:03;100552.00;;;15.63;100.00
16122;BME280;8165;52.730;10.720;2024-02-15T18:40:25;100545.66;;;15.72;100.00
16122;BME280;8165;52.730;10.720;2024-02-15T18:42:49;100546.44;;;15.72;100.00
16122;BME280;8165;52.730;10.720;2024-02-15T18:45:11;100544.56;;;15.78;100.00
16122;BME280;8165;52.730;10.720;2024-02-15T18:47:33;100537.88;;;15.76;100.00
